Flight Track Log - Related Links

Times and Time Zones

All times are in EDT time to prevent confusion due to time zone crossing. See the UAL4563 flight status page for this flight to view local times or setup timezone preferences in your user account.

Time Position Orientation Groundspeed Altitude Reporting Facility
EDT Latitude Longitude Course Direction KTS MPH feet Rate Location/Type
Tue 07:31:14 PM 41.3897 -81.8839 269° West 168 193 1,600  Level Cleveland Center
Tue 07:31:44 PM 41.3892 -81.9228 269° West 208 239 2,600 2,308 Climbing Cleveland Center
Tue 07:32:45 PM 41.4261 -81.9761 313° West 244 281 5,100 2,289 Climbing Cleveland Center
Tue 07:33:21 PM 41.4556 -81.9489 35° Northeast 232 267 6,300 1,791 Climbing Cleveland Center
Tue 07:33:52 PM 41.4833 -81.9136 44° Northeast 268 308 7,100 1,800 Climbing Cleveland Center
Tue 07:34:21 PM 41.5106 -81.8808 42° Northeast 271 312 8,100 2,157 Climbing Cleveland Center
Tue 07:35:21 PM 41.5594 -81.8097 47° Northeast 293 337 10,300 1,450 Climbing Cleveland Center
Tue 07:36:21 PM 41.6250 -81.7164 47° Northeast 300 345 11,000 900 Climbing Cleveland Center
Tue 07:37:21 PM 41.6925 -81.6258 45° Northeast 331 381 12,100 1,050 Climbing Cleveland Center
Tue 07:38:21 PM 41.7644 -81.5242 46° Northeast 350 403 13,100 992 Climbing Cleveland Center
Tue 07:39:22 PM 41.8339 -81.4192 48° Northeast 367 422 14,100 1,050 Climbing Cleveland Center
Tue 07:40:21 PM 41.8600 -81.2772 76° East 375 432 15,200 1,059 Climbing Cleveland Center
Tue 07:41:21 PM 41.8836 -81.1297 78° East 386 444 16,200 1,000 Climbing Cleveland Center
Tue 07:42:21 PM 41.9092 -80.9822 77° East 402 463 17,200 900 Climbing Cleveland Center
Tue 07:43:21 PM 41.9283 -80.8511 79° East 402 463 18,000 900 Climbing Cleveland Center
Tue 07:44:21 PM 41.9536 -80.7033 77° East 402 463 19,000 1,000 Climbing Cleveland Center
Tue 07:45:21 PM 41.9767 -80.5525 78° East 408 470 20,000 1,050 Climbing Cleveland Center
Tue 07:46:21 PM 42.0014 -80.3961 78° East 414 476 21,100 1,050 Climbing Cleveland Center
Tue 07:47:21 PM 42.0242 -80.2367 79° East 419 482 22,100 1,000 Climbing Cleveland Center
Tue 07:48:21 PM 42.0486 -80.0772 78° East 432 497 23,100 1,050 Climbing Cleveland Center
Tue 07:49:21 PM 42.0747 -79.9061 78° East 432 497 24,200 1,050 Climbing Cleveland Center
Tue 07:50:21 PM 42.0986 -79.7464 79° East 427 491 25,200 1,000 Climbing Cleveland Center
Tue 07:51:21 PM 42.1203 -79.5894 79° East 427 491 26,200 1,000 Climbing Cleveland Center
Tue 07:52:21 PM 42.1439 -79.4350 78° East 427 491 27,200 1,000 Climbing Cleveland Center
Tue 07:53:21 PM 42.1653 -79.2806 79° East 427 491 28,200 1,000 Climbing Cleveland Center
Tue 07:54:21 PM 42.1864 -79.1289 79° East 416 479 29,200 1,000 Climbing Cleveland Center
Tue 07:55:21 PM 42.2072 -78.9769 79° East 410 472 30,200 1,050 Climbing Cleveland Center
Tue 07:56:21 PM 42.2281 -78.8222 80° East 410 472 31,300 1,050 Climbing Cleveland Center
Tue 07:57:21 PM 42.2483 -78.6703 80° East 410 472 32,300 1,000 Climbing Cleveland Center
Tue 07:58:21 PM 42.2667 -78.5153 81° East 410 472 33,300 800 Climbing Cleveland Center
Tue 07:59:21 PM 42.2867 -78.3603 80° East 410 472 33,900 300 Climbing Cleveland Center
Tue 08:00:21 PM 42.3042 -78.1997 82° East 416 479 33,900  Level Cleveland Center
Tue 08:01:21 PM 42.3258 -78.0331 80° East 426 490 33,900  Level Cleveland Center
Tue 08:02:21 PM 42.3447 -77.8664 81° East 440 506 33,900 50 Level Cleveland Center
Tue 08:03:22 PM 42.3639 -77.7028 81° East 440 506 34,000 50 Climbing Cleveland Center
Tue 08:04:21 PM 42.3825 -77.5417 81° East 440 506 34,000  Level Cleveland Center
Tue 08:05:21 PM 42.3992 -77.3806 82° East 440 506 34,000 373 Level Cleveland Center
Tue 08:07:02 PM 42.4794 -77.1619 63° Northeast 410 472 35,000 373 Climbing Boston Center
Tue 08:08:02 PM 42.5372 -77.0253 60° Northeast 410 472 35,000  Level Boston Center
Tue 08:09:02 PM 42.5558 -76.8661 81° East 410 472 35,000  Level Boston Center
Tue 08:10:02 PM 42.5664 -76.7031 85° East 420 483 35,000  Level Boston Center
Tue 08:11:02 PM 42.5786 -76.5375 84° East 427 491 35,000  Level Boston Center
Tue 08:12:02 PM 42.5908 -76.3747 84° East 433 498 35,000  Level Boston Center
Tue 08:13:02 PM 42.6044 -76.2147 83° East 433 498 35,000  Level Boston Center
Tue 08:14:02 PM 42.6142 -76.0489 85° East 433 498 35,000  Level Boston Center
Tue 08:15:02 PM 42.6253 -75.8886 85° East 433 498 35,000  Level Boston Center
Tue 08:16:02 PM 42.6342 -75.7253 86° East 428 493 35,000  Level Boston Center
Tue 08:17:02 PM 42.6450 -75.5650 85° East 423 487 35,000  Level Boston Center
Tue 08:18:02 PM 42.6556 -75.4075 85° East 423 487 35,000  Level Boston Center
Tue 08:19:02 PM 42.6664 -75.2272 85° East 428 493 35,000  Level Boston Center
Tue 08:20:02 PM 42.6764 -75.0667 85° East 428 493 35,000 -150 Level Boston Center
Tue 08:21:02 PM 42.6861 -74.9089 85° East 423 487 34,700 -1,600 Descending Boston Center
Tue 08:22:02 PM 42.6939 -74.7453 86° East 423 487 31,800 -2,800 Descending Boston Center
Tue 08:23:02 PM 42.7056 -74.5761 85° East 429 494 29,100 -1,800 Descending Boston Center
Tue 08:24:02 PM 42.7147 -74.4097 86° East 434 499 28,200 -1,350 Descending Boston Center
Tue 08:25:02 PM 42.7239 -74.2403 86° East 446 513 26,400 -1,650 Descending Boston Center
Tue 08:26:02 PM 42.7325 -74.0739 86° East 446 513 24,900 -1,250 Descending Boston Center
Tue 08:27:02 PM 42.7411 -73.9072 86° East 441 507 23,900 -650 Descending Boston Center
Tue 08:28:02 PM 42.7492 -73.7464 86° East 441 507 23,600 -650 Descending Boston Center
Tue 08:29:02 PM 42.7572 -73.5881 86° East 435 501 22,600 -1,000 Descending Boston Center
Tue 08:30:02 PM 42.7631 -73.4242 87° East 430 495 21,600 -1,000 Descending Boston Center
Tue 08:31:02 PM 42.7683 -73.2658 87° East 420 483 20,600 -1,050 Descending Boston Center
Tue 08:32:02 PM 42.7736 -73.1103 87° East 420 483 19,500 -800 Descending Boston Center
Tue 08:33:02 PM 42.7786 -72.9492 88° East 420 483 19,000 -650 Descending Boston Center
Tue 08:34:02 PM 42.7833 -72.7936 88° East 420 483 18,200 -1,000 Descending Boston Center
Tue 08:35:02 PM 42.7858 -72.6408 89° East 415 478 17,000 -1,500 Descending Boston Center
Tue 08:36:02 PM 42.7900 -72.4939 88° East 402 463 15,200 -2,150 Descending Boston Center
Tue 08:37:02 PM 42.7942 -72.3494 88° East 391 450 12,700 -2,150 Descending Boston Center
Tue 08:38:02 PM 42.8003 -72.2164 86° East 374 430 10,900 -1,150 Descending Boston Center
Tue 08:39:02 PM 42.8292 -72.1258 66° East 315 362 10,400 -800 Descending Boston Center
Tue 08:40:02 PM 42.8664 -72.0208 64° Northeast 274 315 9,300 -1,000 Descending Boston Center
Tue 08:41:02 PM 42.8933 -71.9414 65° Northeast 261 300 8,400 -1,000 Descending Boston Center
Tue 08:42:02 PM 42.9261 -71.8417 66° East 256 295 7,300 -1,200 Descending Boston Center
Tue 08:43:02 PM 42.9547 -71.7622 64° Northeast 256 295 6,000 -1,364 Descending Boston Center
Tue 08:44:14 PM 42.9875 -71.6625 66° East 256 295 4,300 -1,545 Descending Boston Center
Tue 08:45:14 PM 43.0139 -71.5628 70° East 235 270 2,600 -1,300 Descending Boston Center
Tue 08:46:14 PM 43.0092 -71.4947 95° East 204 235 1,700 -750 Descending Boston Center
Tue 08:47:14 PM 42.9778 -71.4611 142° Southeast 142 163 1,100 -650 Descending Boston Center
Tue 08:48:14 PM 42.9483 -71.4444 157° South 133 153 400 3,950 Descending Boston Center
Tue 08:49:14 PM 42.9106 -71.4194 154° Southeast 133 153 9,000 4,300 Climbing Boston Center
Tue 08:50:14 PM 42.8728 -71.3975 157° South 133 153 9,000  Level Boston Center
Tue 08:51:14 PM 42.8372 -71.3783 158° South 133 153 9,000  Level Boston Center
Tue 08:53:00 PM 42.9167 -71.4333 316° Northwest  Level FlightAware Approximate
Tue 09:00:00 PM 42.9328 -71.4358 316° Northwest  Level Estimated
Tue 09:01:00 PM 42.9328 -71.4358 316° Northwest  Level Estimated
Tue 09:02:00 PM 42.9328 -71.4358 316° Northwest  Level Estimated
Tue 09:03:00 PM 42.9328 -71.4358 316° Northwest  Level Estimated
Tue 09:04:00 PM 42.9328 -71.4358 316° Northwest  Level Estimated
Tue 09:05:00 PM 42.9328 -71.4358 316° Northwest  Level Estimated
Tue 09:06:00 PM 42.9328 -71.4358 316° Northwest  Level Estimated

Login

Don't have an account? Register now (free) for customized features, flight alerts, and more!